Time;durP1;ratioP1;P1;durP2;ratioP2;P2;SDS_P1;SDS_P2;PMS_P1;PMS_P2;Temp;Humidity;BMP_temperature;BMP_pressure;BME280_temperature;BME280_humidity;BME280_pressure;Samples;Min_cycle;Max_cycle;Signal;HPM_P1;HPM_P2
2022/08/26 00:01:14;;;;;;;6.53;5.33;;;;;;;20.27;59.69;99560.55;1784012;80;21464;-75
2022/08/26 00:03:41;;;;;;;10.13;5.62;;;;;;;20.24;59.89;99563.47;1812643;79;21117;-74
2022/08/26 00:06:07;;;;;;;7.75;5.50;;;;;;;20.21;59.95;99559.20;1784147;80;20979;-75
2022/08/26 00:08:34;;;;;;;9.25;6.05;;;;;;;20.19;59.69;99556.25;1812555;79;21062;-75
2022/08/26 00:11:01;;;;;;;6.25;5.65;;;;;;;20.18;59.62;99559.91;1784425;80;21541;-75
2022/08/26 00:13:28;;;;;;;7.50;5.72;;;;;;;20.17;59.55;99559.53;1812535;79;21545;-75
2022/08/26 00:15:54;;;;;;;8.68;5.50;;;;;;;20.16;59.77;99553.84;1784059;80;21173;-75
2022/08/26 00:18:21;;;;;;;7.28;5.37;;;;;;;20.14;59.75;99553.08;1812464;79;21007;-75
2022/08/26 00:20:47;;;;;;;6.78;5.53;;;;;;;20.12;60.00;99559.02;1783914;80;20996;-75
2022/08/26 00:23:13;;;;;;;11.63;5.83;;;;;;;20.08;60.27;99553.05;1812651;78;21125;-75
2022/08/26 00:25:40;;;;;;;8.75;5.92;;;;;;;20.06;60.23;99551.48;1784207;80;22087;-75
2022/08/26 00:28:06;;;;;;;6.60;5.62;;;;;;;20.03;60.41;99552.05;1812843;79;21164;-74
2022/08/26 00:30:33;;;;;;;9.65;5.42;;;;;;;20.02;60.52;99552.16;1784270;80;21031;-75
2022/08/26 00:33:00;;;;;;;11.15;5.40;;;;;;;19.98;60.23;99554.20;1812629;78;20990;-75
2022/08/26 00:35:27;;;;;;;10.28;5.85;;;;;;;19.97;60.48;99550.31;1784182;80;20979;-75
2022/08/26 00:37:54;;;;;;;9.58;5.08;;;;;;;19.95;60.59;99549.08;1812815;79;21114;-75
2022/08/26 00:40:34;;;;;;;8.78;5.50;;;;;;;19.92;60.90;99549.33;1784404;80;21194;-75
2022/08/26 00:43:01;;;;;;;5.72;5.00;;;;;;;19.89;60.37;99550.89;1812368;79;21014;-75
2022/08/26 00:45:36;;;;;;;7.67;5.45;;;;;;;19.89;60.73;99552.22;1812770;78;21026;-74
2022/08/26 00:48:04;;;;;;;9.63;5.58;;;;;;;19.88;60.63;99546.98;1811663;79;21890;-75
2022/08/26 00:50:35;;;;;;;7.35;5.37;;;;;;;19.86;60.79;99543.09;1747867;80;21003;-74
2022/08/26 00:53:04;;;;;;;11.43;5.10;;;;;;;19.83;60.81;99539.30;1815720;78;21223;-75
2022/08/26 00:55:39;;;;;;;15.13;6.10;;;;;;;19.83;60.28;99541.98;1795139;79;21038;-75
2022/08/26 00:58:06;;;;;;;10.10;5.35;;;;;;;19.84;60.08;99546.36;1821418;78;21025;-75
2022/08/26 01:00:32;;;;;;;9.03;5.53;;;;;;;19.85;59.48;99546.72;1795355;79;21039;-75
2022/08/26 01:03:00;;;;;;;7.80;4.90;;;;;;;19.86;59.19;99541.77;1818630;78;21071;-74
2022/08/26 01:05:27;;;;;;;12.23;5.45;;;;;;;19.86;58.90;99537.27;1767103;81;21127;-75
2022/08/26 01:07:54;;;;;;;6.20;4.75;;;;;;;19.89;58.66;99538.88;1765088;80;21585;-75
2022/08/26 01:10:24;;;;;;;9.10;5.08;;;;;;;19.90;58.42;99533.03;1798736;79;21006;-75
2022/08/26 01:12:56;;;;;;;15.55;5.55;;;;;;;19.91;58.17;99534.27;1824113;78;21036;-75
2022/08/26 01:15:27;;;;;;;11.43;5.08;;;;;;;19.90;58.14;99532.55;1767248;80;21143;-75
2022/08/26 01:17:53;;;;;;;8.33;5.25;;;;;;;19.92;58.02;99537.78;1765328;80;22382;-75
2022/08/26 01:21:17;;;;;;;6.67;4.58;;;;;;;19.92;57.89;99535.98;1798783;79;20983;-75
2022/08/26 01:23:47;;;;;;;12.55;5.47;;;;;;;19.94;57.59;99538.52;1824261;78;21000;-75
2022/08/26 01:26:30;;;;;;;10.53;5.00;;;;;;;19.94;57.67;99531.38;1767217;80;21424;-75
2022/08/26 01:28:58;;;;;;;11.63;5.30;;;;;;;19.93;57.61;99531.48;1765644;80;21000;-75
2022/08/26 01:31:27;;;;;;;5.75;5.15;;;;;;;19.92;57.65;99525.30;1767736;79;21107;-75
2022/08/26 01:34:02;;;;;;;6.08;5.08;;;;;;;19.92;57.57;99533.31;1823917;78;21063;-75
2022/08/26 01:36:28;;;;;;;12.37;4.87;;;;;;;19.92;57.58;99527.09;1821281;78;20996;-75
2022/08/26 01:38:55;;;;;;;8.00;5.10;;;;;;;19.92;57.31;99533.31;1793700;78;21022;-75
2022/08/26 01:41:22;;;;;;;11.10;5.12;;;;;;;19.94;57.20;99526.49;1794040;78;21129;-75
2022/08/26 01:43:52;;;;;;;12.03;5.25;;;;;;;19.94;57.13;99526.49;1821687;78;21859;-74
2022/08/26 01:46:19;;;;;;;8.30;5.00;;;;;;;19.94;56.87;99519.81;1821396;78;20998;-75
2022/08/26 01:48:46;;;;;;;7.20;4.67;;;;;;;19.93;56.84;99518.97;1821718;78;20966;-74
2022/08/26 01:51:13;;;;;;;6.62;5.22;;;;;;;19.93;56.87;99517.64;1821284;78;21010;-74
2022/08/26 01:53:39;;;;;;;16.65;4.85;;;;;;;19.94;56.93;99515.35;1819171;78;21072;-75
2022/08/26 01:56:06;;;;;;;11.55;5.10;;;;;;;19.93;56.76;99513.63;1818956;78;21763;-75
2022/08/26 01:58:50;;;;;;;9.05;4.75;;;;;;;19.94;56.76;99515.35;1818301;78;21069;-75
2022/08/26 02:01:16;;;;;;;10.98;4.92;;;;;;;19.94;56.62;99512.68;1791871;78;21102;-75
2022/08/26 02:04:19;;;;;;;8.25;4.50;;;;;;;19.93;56.63;99510.12;1820767;78;21080;-75
2022/08/26 02:06:48;;;;;;;10.55;4.85;;;;;;;19.93;56.55;99509.62;1821337;78;20978;-74
2022/08/26 02:09:14;;;;;;;8.85;4.70;;;;;;;19.91;56.53;99507.56;1820663;78;21088;-75
2022/08/26 02:11:41;;;;;;;13.70;5.90;;;;;;;19.90;56.49;99501.84;1821317;78;21099;-75
2022/08/26 02:14:11;;;;;;;8.40;4.70;;;;;;;19.89;56.38;99501.48;1820917;78;22017;-74
2022/08/26 02:16:40;;;;;;;11.33;5.17;;;;;;;19.90;56.52;99501.00;1821314;78;21021;-75
2022/08/26 02:19:12;;;;;;;9.03;4.78;;;;;;;19.89;56.39;99501.48;1821027;78;20982;-75
2022/08/26 02:21:40;;;;;;;13.68;4.90;;;;;;;19.87;56.46;99506.09;1820865;78;21631;-74
2022/08/26 02:24:10;;;;;;;11.83;5.05;;;;;;;19.87;56.34;99502.09;1820710;78;21022;-75
2022/08/26 02:26:37;;;;;;;7.20;4.50;;;;;;;19.85;56.49;99503.53;1820783;78;21588;-75
2022/08/26 02:29:08;;;;;;;16.70;5.70;;;;;;;19.84;56.45;99504.98;1820618;78;21022;-75
2022/08/26 02:31:34;;;;;;;11.73;4.92;;;;;;;19.82;56.44;99507.76;1821296;78;21068;-74
2022/08/26 02:34:14;;;;;;;7.53;4.75;;;;;;;19.81;56.43;99509.20;1820894;78;21802;-74
2022/08/26 02:36:41;;;;;;;8.33;4.90;;;;;;;19.80;56.42;99507.48;1821267;78;21045;-74
2022/08/26 02:39:07;;;;;;;11.12;5.15;;;;;;;19.77;56.63;99515.72;1820718;78;21029;-75
2022/08/26 02:41:34;;;;;;;14.68;4.80;;;;;;;19.74;56.56;99507.92;1821114;78;21525;-75
2022/08/26 02:44:00;;;;;;;8.50;4.47;;;;;;;19.72;56.32;99510.70;1821418;78;21003;-75
2022/08/26 02:46:28;;;;;;;7.92;5.20;;;;;;;19.72;56.58;99505.83;1821059;78;21537;-75
2022/08/26 02:48:54;;;;;;;6.05;4.90;;;;;;;19.71;56.60;99508.14;1821135;78;21021;-75
2022/08/26 02:51:21;;;;;;;12.23;4.62;;;;;;;19.68;56.64;99510.05;1820733;78;20979;-75
2022/08/26 02:53:48;;;;;;;14.53;4.90;;;;;;;19.67;56.77;99510.19;1817613;78;21013;-75
2022/08/26 02:56:14;;;;;;;14.10;4.85;;;;;;;19.66;56.69;99514.65;1813534;79;21086;-75
2022/08/26 02:58:41;;;;;;;8.78;5.30;;;;;;;19.64;56.70;99519.25;1809654;79;21538;-74
2022/08/26 03:01:07;;;;;;;11.00;4.62;;;;;;;19.63;56.67;99518.87;1810118;79;20987;-75
2022/08/26 03:03:34;;;;;;;10.40;5.03;;;;;;;19.62;56.53;99525.19;1809985;79;21514;-74
2022/08/26 03:06:01;;;;;;;7.95;5.17;;;;;;;19.61;56.80;99519.47;1810351;79;21055;-75
2022/08/26 03:08:27;;;;;;;11.22;5.05;;;;;;;19.59;56.82;99521.41;1810121;79;21032;-74
2022/08/26 03:10:54;;;;;;;11.25;5.10;;;;;;;19.58;56.84;99520.17;1810440;79;21186;-75
2022/08/26 03:13:21;;;;;;;9.55;4.60;;;;;;;19.56;57.08;99525.62;1809876;79;21012;-75
2022/08/26 03:15:47;;;;;;;8.85;5.00;;;;;;;19.54;57.06;99522.70;1809981;79;21985;-74
2022/08/26 03:18:15;;;;;;;18.42;5.22;;;;;;;19.52;57.13;99516.14;1810136;79;22396;-75
2022/08/26 03:20:41;;;;;;;12.10;5.03;;;;;;;19.52;57.25;99524.61;1809842;79;21015;-75
2022/08/26 03:23:07;;;;;;;14.23;4.72;;;;;;;19.50;57.11;99526.05;1810197;79;21073;-75
2022/08/26 03:25:34;;;;;;;7.53;4.55;;;;;;;19.51;57.00;99526.92;1809948;79;21106;-75
2022/08/26 03:28:01;;;;;;;11.55;5.62;;;;;;;19.51;57.08;99535.77;1810165;79;21019;-75
2022/08/26 03:30:40;;;;;;;6.45;4.58;;;;;;;19.50;57.07;99526.05;1810066;79;21034;-75
2022/08/26 03:33:09;;;;;;;5.90;4.40;;;;;;;19.49;57.06;99528.37;1810209;79;21109;-75
2022/08/26 03:35:36;;;;;;;16.05;6.12;;;;;;;19.50;57.22;99532.72;1810326;79;21132;-75
2022/08/26 03:38:06;;;;;;;12.25;4.50;;;;;;;19.52;57.65;99532.16;1809953;79;20995;-74
2022/08/26 03:40:35;;;;;;;14.05;4.80;;;;;;;19.51;57.55;99531.77;1814357;78;21633;-76
2022/08/26 03:43:03;;;;;;;5.45;4.30;;;;;;;19.51;57.59;99535.77;1815178;79;21694;-75
2022/08/26 03:45:30;;;;;;;9.33;4.70;;;;;;;19.52;57.48;99532.61;1815597;79;21036;-75
2022/08/26 03:47:56;;;;;;;10.68;4.80;;;;;;;19.52;57.51;99530.82;1815153;78;21087;-75
2022/08/26 03:50:23;;;;;;;6.80;4.60;;;;;;;19.53;57.38;99531.66;1815040;79;21044;-75
2022/08/26 03:52:51;;;;;;;11.48;4.80;;;;;;;19.54;57.18;99532.05;1815181;78;21082;-76
2022/08/26 03:55:18;;;;;;;8.73;4.92;;;;;;;19.55;57.36;99536.41;1815035;79;20994;-74
2022/08/26 03:57:44;;;;;;;6.72;4.87;;;;;;;19.56;57.29;99534.96;1815448;78;21048;-74
2022/08/26 04:00:14;;;;;;;11.35;4.55;;;;;;;19.57;57.26;99534.47;1814981;78;21784;-75
2022/08/26 04:02:44;;;;;;;13.28;5.40;;;;;;;19.59;57.18;99534.75;1815058;79;21020;-75
2022/08/26 04:05:14;;;;;;;7.20;4.42;;;;;;;19.61;56.83;99530.14;1815419;79;21865;-75
2022/08/26 04:07:41;;;;;;;5.67;4.33;;;;;;;19.61;56.76;99519.47;1814452;79;21059;-75
2022/08/26 04:10:10;;;;;;;13.98;5.35;;;;;;;19.64;56.77;99519.25;1815283;79;21142;-75
2022/08/26 04:12:38;;;;;;;16.67;5.92;;;;;;;19.66;56.73;99514.65;1815225;78;21500;-75
2022/08/26 04:15:07;;;;;;;14.78;4.75;;;;;;;19.68;56.72;99515.38;1815577;78;21417;-75
2022/08/26 04:17:34;;;;;;;7.53;4.75;;;;;;;19.71;56.69;99518.33;1815015;79;21032;-75
2022/08/26 04:20:01;;;;;;;12.58;5.17;;;;;;;19.74;56.62;99514.59;1815221;79;21614;-75
2022/08/26 04:22:28;;;;;;;12.13;5.17;;;;;;;19.76;56.61;99517.55;1815043;78;21120;-76
2022/08/26 04:24:54;;;;;;;11.53;5.25;;;;;;;19.79;56.30;99519.99;1814948;79;21225;-75
2022/08/26 04:27:21;;;;;;;9.78;5.10;;;;;;;19.82;56.15;99514.89;1815069;78;21597;-75
2022/08/26 04:29:47;;;;;;;13.00;4.97;;;;;;;19.85;55.83;99512.01;1814872;79;21010;-75
2022/08/26 04:32:14;;;;;;;15.13;5.15;;;;;;;19.89;55.74;99509.50;1815441;79;21060;-75
2022/08/26 04:34:41;;;;;;;8.25;4.97;;;;;;;19.91;55.57;99500.88;1815157;79;21036;-74
2022/08/26 04:37:07;;;;;;;8.43;4.78;;;;;;;19.95;55.49;99509.02;1815257;79;22281;-75
2022/08/26 04:39:34;;;;;;;14.38;4.53;;;;;;;19.98;55.10;99507.47;1814883;78;21558;-75
2022/08/26 04:42:00;;;;;;;14.47;4.35;;;;;;;20.02;54.53;99508.09;1815251;79;21047;-75
2022/08/26 04:44:28;;;;;;;11.63;4.58;;;;;;;20.07;54.37;99502.41;1815484;79;20949;-75
2022/08/26 04:46:55;;;;;;;7.75;4.25;;;;;;;20.12;54.22;99505.10;1815177;79;21123;-75
2022/08/26 04:49:22;;;;;;;13.43;4.30;;;;;;;20.18;54.13;99509.16;1815377;79;21108;-75
2022/08/26 04:51:49;;;;;;;12.05;4.47;;;;;;;20.21;54.03;99504.92;1815506;78;21063;-75
2022/08/26 04:54:16;;;;;;;13.48;4.75;;;;;;;20.25;54.02;99506.38;1817976;78;21044;-74
2022/08/26 04:56:44;;;;;;;16.48;5.10;;;;;;;20.27;53.98;99507.11;1821018;78;21025;-74
2022/08/26 04:59:14;;;;;;;12.03;5.80;;;;;;;20.29;53.77;99503.87;1816882;78;21071;-75
2022/08/26 05:01:46;;;;;;;17.60;5.28;;;;;;;20.34;53.64;99507.05;1821114;78;21661;-75
2022/08/26 05:04:15;;;;;;;12.88;4.83;;;;;;;20.40;53.48;99505.22;1821125;78;21535;-74
2022/08/26 05:06:42;;;;;;;16.02;4.85;;;;;;;20.47;53.49;99505.61;1820989;78;21043;-75
2022/08/26 05:09:10;;;;;;;10.58;4.40;;;;;;;20.53;53.42;99508.32;1821038;78;21086;-75
2022/08/26 05:11:37;;;;;;;18.20;5.08;;;;;;;20.61;52.97;99508.59;1791774;78;20980;-75
2022/08/26 05:14:04;;;;;;;11.75;4.40;;;;;;;20.68;52.75;99504.50;1759468;81;21198;-74
2022/08/26 05:16:32;;;;;;;12.03;4.50;;;;;;;20.76;52.41;99503.89;1757756;80;21064;-74
2022/08/26 05:18:58;;;;;;;16.10;4.42;;;;;;;20.83;52.13;99505.14;1790730;80;21616;-74
2022/08/26 05:21:25;;;;;;;13.50;4.40;;;;;;;20.92;51.86;99506.25;1820808;78;21036;-75
2022/08/26 05:23:55;;;;;;;11.73;5.10;;;;;;;20.97;50.98;99502.72;1796331;79;21038;-75
2022/08/26 05:26:24;;;;;;;11.15;4.60;;;;;;;21.02;50.41;99504.55;1790974;80;21802;-75
2022/08/26 05:28:51;;;;;;;8.18;4.67;;;;;;;21.09;50.61;99504.42;1820940;78;21118;-74
2022/08/26 05:31:22;;;;;;;10.55;4.55;;;;;;;21.15;50.72;99505.29;1759344;81;21044;-75
2022/08/26 05:33:49;;;;;;;18.12;5.15;;;;;;;21.23;50.55;99509.17;1757623;81;21013;-75
2022/08/26 05:36:18;;;;;;;13.28;4.83;;;;;;;21.30;50.34;99507.24;1790400;79;21545;-75
2022/08/26 05:38:44;;;;;;;13.00;4.42;;;;;;;21.36;49.75;99501.88;1821272;78;21194;-75
2022/08/26 05:41:23;;;;;;;10.53;4.65;;;;;;;21.44;49.65;99503.45;1758982;81;21619;-75
2022/08/26 05:43:51;;;;;;;15.48;4.97;;;;;;;21.51;49.44;99500.67;1754874;81;21677;-75
2022/08/26 05:46:17;;;;;;;14.78;4.53;;;;;;;21.59;48.74;99497.89;1784411;80;21564;-75
2022/08/26 05:48:45;;;;;;;13.60;5.00;;;;;;;21.66;49.04;99499.09;1786754;80;21435;-74
2022/08/26 05:51:12;;;;;;;10.58;4.40;;;;;;;21.73;48.33;99499.44;1784324;80;21796;-76
2022/08/26 05:53:40;;;;;;;18.50;4.67;;;;;;;21.80;48.16;99501.47;1784834;80;21122;-75
2022/08/26 05:56:08;;;;;;;10.70;4.58;;;;;;;21.86;47.71;99494.28;1776079;80;20976;-75
2022/08/26 05:58:35;;;;;;;14.58;4.22;;;;;;;21.95;47.53;99507.91;1776146;80;21110;-75
2022/08/26 06:01:13;;;;;;;8.60;4.10;;;;;;;22.01;47.04;99498.03;1776536;80;21050;-75
2022/08/26 06:03:43;;;;;;;14.85;4.47;;;;;;;22.08;47.04;99508.59;1775519;80;21207;-75
2022/08/26 06:06:16;;;;;;;17.98;4.15;;;;;;;22.16;46.54;99505.30;1776373;80;21023;-74
2022/08/26 06:08:43;;;;;;;16.73;4.62;;;;;;;22.21;46.59;99503.08;1775933;80;21000;-75
2022/08/26 06:11:12;;;;;;;20.05;4.33;;;;;;;22.29;46.58;99507.81;1776449;80;21046;-75
2022/08/26 06:13:39;;;;;;;25.45;4.97;;;;;;;22.36;46.17;99503.16;1775719;80;21074;-75
2022/08/26 06:16:11;;;;;;;16.40;5.37;;;;;;;22.47;45.89;99503.59;1776223;80;21142;-75
2022/08/26 06:18:40;;;;;;;22.62;4.90;;;;;;;22.54;45.96;99503.41;1776127;80;21071;-75
2022/08/26 06:21:23;;;;;;;14.40;4.25;;;;;;;22.64;45.75;99499.47;1776179;80;21024;-76
2022/08/26 06:26:37;;;;;;;14.95;4.60;;;;;;;22.82;44.74;99499.73;1776651;80;21035;-76
2022/08/26 06:29:04;;;;;;;12.75;4.53;;;;;;;22.91;44.69;99502.11;1775977;80;21479;-75
2022/08/26 06:31:34;;;;;;;17.37;4.33;;;;;;;22.99;44.07;99499.61;1776121;80;21664;-76
2022/08/26 06:34:02;;;;;;;11.43;4.35;;;;;;;23.07;43.84;99501.68;1776110;80;21012;-75
2022/08/26 06:36:29;;;;;;;15.20;5.85;;;;;;;23.14;43.87;99503.67;1776066;80;21146;-75
2022/08/26 06:39:00;;;;;;;18.87;6.33;;;;;;;23.22;43.49;99504.36;1775973;80;21118;-76
2022/08/26 06:41:26;;;;;;;11.08;4.80;;;;;;;23.29;43.59;99498.80;1775873;80;21212;-75
2022/08/26 06:43:53;;;;;;;9.43;3.92;;;;;;;23.39;43.92;99494.81;1775919;80;21549;-75
2022/08/26 06:46:20;;;;;;;19.65;3.95;;;;;;;23.49;44.43;99501.06;1776457;80;21052;-76
2022/08/26 06:48:47;;;;;;;11.08;4.35;;;;;;;23.60;43.38;99497.41;1776349;80;21122;-76
2022/08/26 06:51:17;;;;;;;13.38;4.65;;;;;;;23.70;42.87;99494.28;1752454;80;21121;-76
2022/08/26 06:53:46;;;;;;;24.50;4.65;;;;;;;23.83;42.51;99497.23;1771623;80;21056;-75
2022/08/26 06:56:15;;;;;;;14.75;4.08;;;;;;;23.91;41.81;99483.95;1776856;80;20989;-76
2022/08/26 06:58:42;;;;;;;21.97;3.77;;;;;;;24.01;41.56;99485.31;1777025;80;21606;-75
2022/08/26 07:01:25;;;;;;;17.50;4.25;;;;;;;24.10;41.04;99481.77;1777067;80;21608;-76
2022/08/26 07:03:55;;;;;;;27.22;8.08;;;;;;;24.19;41.12;99479.59;1777088;80;22426;-76
2022/08/26 07:06:22;;;;;;;20.10;4.62;;;;;;;24.31;41.61;99480.30;1777075;80;21236;-75
2022/08/26 07:08:50;;;;;;;21.48;4.30;;;;;;;24.41;41.34;99469.03;1776841;80;21044;-75
2022/08/26 07:11:18;;;;;;;8.45;3.70;;;;;;;24.53;40.82;99478.27;1777135;80;21037;-76
2022/08/26 07:13:45;;;;;;;22.15;4.15;;;;;;;24.63;40.36;99487.23;1777163;80;21092;-75
2022/08/26 07:16:15;;;;;;;20.05;4.22;;;;;;;24.73;39.93;99513.62;1777081;80;21052;-76
2022/08/26 07:18:42;;;;;;;13.68;3.58;;;;;;;24.82;39.82;99501.97;1776813;80;21906;-75
2022/08/26 07:21:10;;;;;;;25.05;4.05;;;;;;;24.92;40.09;99505.15;1776936;80;21009;-75
2022/08/26 07:23:37;;;;;;;14.90;4.05;;;;;;;25.02;40.25;99503.28;1777194;80;21497;-76
2022/08/26 07:26:07;;;;;;;13.68;4.12;;;;;;;25.14;40.33;99506.64;1776731;80;21556;-76
2022/08/26 07:28:34;;;;;;;12.98;3.95;;;;;;;25.24;40.01;99495.33;1776027;80;21579;-76
2022/08/26 07:31:05;;;;;;;17.37;3.80;;;;;;;25.37;39.67;99499.08;1777100;80;21591;-75
2022/08/26 07:33:32;;;;;;;11.38;3.70;;;;;;;25.47;39.05;99496.31;1776840;80;21025;-75
2022/08/26 07:35:58;;;;;;;21.37;4.22;;;;;;;25.54;38.93;99500.96;1777170;80;21044;-76
2022/08/26 07:38:25;;;;;;;18.90;4.10;;;;;;;25.64;39.23;99498.70;1776964;80;20989;-75
2022/08/26 07:40:51;;;;;;;21.62;3.87;;;;;;;25.72;38.87;99490.23;1777034;80;21654;-76
2022/08/26 07:43:18;;;;;;;16.80;4.33;;;;;;;25.83;38.36;99489.16;1776738;80;21869;-75
2022/08/26 07:45:45;;;;;;;31.33;4.83;;;;;;;25.93;38.28;99485.89;1776822;80;21480;-76
2022/08/26 07:48:11;;;;;;;12.28;3.87;;;;;;;26.03;37.72;99476.94;1777171;80;21116;-76
2022/08/26 07:50:40;;;;;;;20.77;4.08;;;;;;;26.13;37.61;99477.20;1779214;78;21092;-76
2022/08/26 07:53:06;;;;;;;22.25;4.25;;;;;;;26.21;37.31;99475.09;1821258;78;21532;-76
2022/08/26 07:55:33;;;;;;;14.55;4.22;;;;;;;26.30;38.00;99471.95;1817039;78;21203;-75
2022/08/26 07:57:59;;;;;;;18.35;3.75;;;;;;;26.42;37.41;99464.46;1815192;78;21049;-76
2022/08/26 08:00:26;;;;;;;18.20;3.77;;;;;;;26.53;37.12;99466.05;1815082;79;20982;-75
2022/08/26 08:02:53;;;;;;;19.17;3.75;;;;;;;26.63;36.80;99461.43;1814888;79;21026;-76
2022/08/26 08:05:20;;;;;;;14.30;4.00;;;;;;;26.76;36.55;99463.72;1815362;79;20970;-76
2022/08/26 08:07:47;;;;;;;28.50;3.65;;;;;;;26.84;35.77;99460.56;1815365;79;21270;-75
2022/08/26 08:10:19;;;;;;;23.77;3.90;;;;;;;26.93;35.17;99460.10;1815169;79;21540;-75
2022/08/26 08:12:48;;;;;;;15.83;3.25;;;;;;;27.01;35.57;99461.50;1815358;79;21453;-75
2022/08/26 08:15:15;;;;;;;21.75;7.25;;;;;;;27.10;35.23;99459.72;1815274;78;21069;-75
2022/08/26 08:17:46;;;;;;;22.02;5.22;;;;;;;27.17;35.22;99455.87;1815175;78;21659;-76
2022/08/26 08:20:11;;;;;;;13.78;3.85;;;;;;;27.27;35.46;99447.13;1813986;79;21102;-76
2022/08/26 08:22:37;;;;;;;15.48;3.65;;;;;;;27.38;35.20;99450.89;1815199;79;21030;-75
2022/08/26 08:25:05;;;;;;;19.20;3.72;;;;;;;27.50;35.05;99442.50;1815097;79;21489;-76
2022/08/26 08:27:36;;;;;;;15.10;3.30;;;;;;;27.63;34.41;99440.17;1815096;78;20971;-76
2022/08/26 08:30:03;;;;;;;20.60;3.17;;;;;;;27.77;34.22;99444.08;1815014;79;22231;-76
2022/08/26 08:32:30;;;;;;;13.65;3.80;;;;;;;27.86;33.42;99436.86;1815111;79;22277;-76
2022/08/26 08:34:58;;;;;;;18.60;4.12;;;;;;;27.95;33.22;99430.47;1815056;79;21034;-76
2022/08/26 08:37:24;;;;;;;19.73;4.17;;;;;;;28.04;33.51;99436.23;1815166;79;21026;-76
2022/08/26 08:39:51;;;;;;;11.43;2.87;;;;;;;28.13;33.57;99433.86;1814961;79;21026;-76
2022/08/26 08:42:53;;;;;;;15.85;3.02;;;;;;;28.24;32.55;99433.18;1815250;79;21034;-76
2022/08/26 08:45:34;;;;;;;15.20;2.90;;;;;;;28.33;32.45;99435.72;1815296;79;21226;-75
2022/08/26 08:48:10;;;;;;;13.38;2.58;;;;;;;28.45;31.63;99432.16;1814509;79;21050;-76
2022/08/26 08:50:46;;;;;;;18.40;2.85;;;;;;;28.53;31.85;99422.68;1813596;79;21034;-75
2022/08/26 08:53:21;;;;;;;10.28;2.47;;;;;;;28.66;31.92;99426.73;1815033;79;21018;-76
2022/08/26 08:56:05;;;;;;;10.85;2.47;;;;;;;28.77;31.89;99420.97;1818606;78;21049;-75
2022/08/26 08:59:06;;;;;;;15.83;2.72;;;;;;;28.91;32.06;99421.59;1781859;80;22225;-76
2022/08/26 09:01:45;;;;;;;6.85;2.35;;;;;;;29.06;30.64;99423.06;1788487;80;21054;-75
2022/08/26 09:04:52;;;;;;;8.03;2.70;;;;;;;29.20;31.01;99417.48;1759402;81;21048;-76
2022/08/26 09:07:37;;;;;;;9.10;2.65;;;;;;;29.34;30.67;99410.98;1788909;80;21010;-74
2022/08/26 09:10:12;;;;;;;10.65;2.77;;;;;;;29.43;30.94;99405.31;1759149;81;21032;-76
2022/08/26 09:12:39;;;;;;;11.33;2.35;;;;;;;29.55;30.55;99400.85;1731729;80;21137;-76
2022/08/26 09:15:16;;;;;;;12.95;2.83;;;;;;;29.67;30.64;99404.00;1788446;80;21165;-75
2022/08/26 09:18:13;;;;;;;12.73;2.98;;;;;;;29.76;30.19;99400.22;1788963;80;21045;-75
2022/08/26 09:21:04;;;;;;;8.60;2.20;;;;;;;29.83;29.26;99399.86;1788510;80;21101;-76
2022/08/26 09:23:32;;;;;;;18.52;2.70;;;;;;;29.88;29.10;99396.61;1788336;80;21029;-75
2022/08/26 09:26:21;;;;;;;12.65;2.42;;;;;;;29.94;29.56;99389.95;1788508;80;21191;-75
2022/08/26 09:29:03;;;;;;;18.05;2.15;;;;;;;30.07;28.91;99392.55;1788463;80;21520;-76
2022/08/26 09:31:34;;;;;;;8.88;1.70;;;;;;;30.18;27.29;99397.55;1763259;80;21113;-75
2022/08/26 09:34:12;;;;;;;14.90;2.08;;;;;;;30.25;27.08;99397.14;1759161;81;21056;-75
2022/08/26 09:36:42;;;;;;;14.95;2.30;;;;;;;30.32;26.72;99391.30;1787712;80;21045;-75
2022/08/26 09:39:29;;;;;;;15.55;1.90;;;;;;;30.35;26.00;99386.03;1759345;81;21072;-75
2022/08/26 09:42:12;;;;;;;15.95;1.67;;;;;;;30.38;27.07;99389.77;1727354;83;21018;-74
2022/08/26 09:44:53;;;;;;;9.45;1.82;;;;;;;30.51;26.74;99379.61;1759092;81;21599;-75
2022/08/26 09:47:24;;;;;;;10.65;1.65;;;;;;;30.63;26.14;99388.14;1722434;82;21056;-76
2022/08/26 09:50:31;;;;;;;7.95;1.90;;;;;;;30.74;26.05;99391.76;1759330;81;21302;-75
2022/08/26 09:53:22;;;;;;;7.28;1.70;;;;;;;30.82;25.60;99393.02;1783570;80;21107;-76
2022/08/26 09:55:51;;;;;;;6.12;1.52;;;;;;;30.89;25.06;99384.97;1762859;81;21040;-76
2022/08/26 09:58:35;;;;;;;8.00;1.90;;;;;;;30.94;24.67;99379.84;1761441;81;21150;-76
2022/08/26 10:01:07;;;;;;;18.82;2.25;;;;;;;31.01;25.12;99384.84;1761348;81;23027;-76
2022/08/26 10:03:37;;;;;;;14.85;1.80;;;;;;;31.08;24.47;99378.13;1732107;81;21127;-75
2022/08/26 10:06:22;;;;;;;12.10;1.60;;;;;;;31.13;24.48;99375.69;1761231;81;21141;-74
2022/08/26 10:08:58;;;;;;;18.48;1.85;;;;;;;31.19;23.41;99385.81;1761083;81;21067;-76
2022/08/26 10:11:50;;;;;;;10.72;1.70;;;;;;;31.21;23.00;99380.19;1761136;81;22180;-76
2022/08/26 10:14:44;;;;;;;16.25;1.50;;;;;;;31.23;22.32;99375.39;1761617;81;21962;-76
2022/08/26 10:17:49;;;;;;;6.15;1.27;;;;;;;31.24;21.68;99380.64;1780407;79;21094;-77
2022/08/26 10:20:23;;;;;;;9.90;1.62;;;;;;;31.26;21.46;99374.49;1782884;79;22365;-76
2022/08/26 10:23:07;;;;;;;9.38;1.42;;;;;;;31.27;21.57;99376.19;1768944;81;21109;-76
2022/08/26 10:25:47;;;;;;;7.22;1.37;;;;;;;31.32;21.87;99382.42;1783220;78;21538;-76
2022/08/26 10:28:42;;;;;;;5.42;1.20;;;;;;;31.39;22.40;99379.25;1740826;81;21057;-76
2022/08/26 10:31:26;;;;;;;5.67;1.50;;;;;;;31.47;23.06;99380.99;1783152;80;21561;-76
2022/08/26 10:33:54;;;;;;;6.28;1.10;;;;;;;31.60;22.36;99369.46;1777843;80;21130;-75
2022/08/26 10:39:12;;;;;;;4.20;0.70;;;;;;;31.75;20.59;99382.48;1755840;81;21496;-76
2022/08/26 10:41:40;;;;;;;4.05;1.20;;;;;;;31.76;20.70;99386.90;1755687;81;20969;-76
2022/08/26 10:44:07;;;;;;;6.05;0.80;;;;;;;31.80;20.74;99377.30;1755985;81;21557;-76
2022/08/26 10:46:42;;;;;;;10.15;1.30;;;;;;;31.87;20.21;99381.97;1755658;81;22045;-76
2022/08/26 10:49:10;;;;;;;;;;;;;;;31.88;19.81;99374.14;1758215;81;21096;-76
2022/08/26 10:52:04;;;;;;;4.80;0.85;;;;;;;31.91;20.15;99381.89;1751625;81;20151;-77
2022/08/26 10:55:07;;;;;;;5.90;1.00;;;;;;;31.95;19.95;99373.68;1755424;81;21052;-76
2022/08/26 10:57:57;;;;;;;10.08;1.62;;;;;;;32.00;19.61;99380.73;1755286;81;22009;-74
2022/08/26 11:03:57;;;;;;;12.70;1.35;;;;;;;32.16;19.51;99380.50;1755634;81;21472;-75
2022/08/26 11:06:27;;;;;;;3.52;0.80;;;;;;;32.25;19.61;99376.27;1755954;81;21162;-77
2022/08/26 11:09:01;;;;;;;6.12;1.30;;;;;;;32.32;19.17;99374.44;1755779;81;21095;-77
2022/08/26 11:11:44;;;;;;;;;;;;;;;32.34;19.15;99367.73;1758647;81;21060;-77
2022/08/26 11:14:20;;;;;;;9.05;1.37;;;;;;;32.39;20.33;99369.88;1755850;81;21119;-74
2022/08/26 11:16:52;;;;;;;6.90;1.30;;;;;;;32.44;19.29;99364.66;1756073;81;21607;-74
2022/08/26 11:19:40;;;;;;;4.47;1.20;;;;;;;32.47;19.57;99369.72;1755732;81;21107;-74
2022/08/26 11:22:28;;;;;;;6.83;1.37;;;;;;;32.51;19.94;99365.55;1756125;81;21614;-74
2022/08/26 11:25:00;;;;;;;5.05;1.50;;;;;;;32.54;20.90;99366.52;1754299;81;21130;-75
2022/08/26 11:27:40;;;;;;;5.55;1.70;;;;;;;32.66;20.67;99370.91;1755935;81;21890;-74
2022/08/26 11:30:16;;;;;;;7.65;1.60;;;;;;;32.78;20.10;99361.66;1755668;81;20967;-75
2022/08/26 11:32:49;;;;;;;10.28;1.30;;;;;;;32.87;20.65;99372.72;1755885;81;21020;-75
2022/08/26 11:35:23;;;;;;;9.25;1.37;;;;;;;32.95;20.27;99360.79;1755936;81;21111;-75
2022/08/26 11:37:56;;;;;;;4.47;1.30;;;;;;;33.04;20.47;99373.75;1755807;81;21036;-74
2022/08/26 11:40:31;;;;;;;5.37;1.40;;;;;;;33.09;20.66;99361.72;1755622;81;21963;-75
2022/08/26 11:43:17;;;;;;;11.93;1.42;;;;;;;33.13;20.54;99369.26;1755953;81;21056;-75
2022/08/26 11:45:50;;;;;;;7.25;2.27;;;;;;;33.17;20.76;99358.84;1755782;81;21127;-75
2022/08/26 11:48:20;;;;;;;6.42;1.32;;;;;;;33.22;20.12;99359.58;1754374;81;21068;-75
2022/08/26 11:50:57;;;;;;;6.75;1.57;;;;;;;33.22;19.41;99349.53;1755799;81;21001;-74
2022/08/26 11:53:24;;;;;;;14.75;1.75;;;;;;;33.16;19.60;99368.05;1755950;81;21653;-75
2022/08/26 11:55:53;;;;;;;10.32;2.00;;;;;;;33.10;19.70;99364.73;1754787;81;21025;-75
2022/08/26 11:58:20;;;;;;;7.17;1.60;;;;;;;33.07;20.61;99358.33;1751989;81;21040;-74